Time;durP1;ratioP1;P1;durP2;ratioP2;P2;SDS_P1;SDS_P2;PMS_P1;PMS_P2;Temp;Humidity;BMP_temperature;BMP_pressure;BME280_temperature;BME280_humidity;BME280_pressure;Samples;Min_cycle;Max_cycle;Signal;HPM_P1;HPM_P2
2022/05/26 00:01:51;;;;;;;;;;;25.20;56.50;;;;;;4946085;28;86283;-50
2022/05/26 00:07:19;;;;;;;;;;;25.20;56.50;;;;;;4945561;28;86835;-51
2022/05/26 00:12:49;;;;;;;;;;;25.20;56.60;;;;;;4945006;28;86999;-50
2022/05/26 00:18:17;;;;;;;;;;;25.20;56.60;;;;;;4944958;28;87050;-51
2022/05/26 00:23:46;;;;;;;;;;;25.20;56.60;;;;;;4944325;28;86992;-51
2022/05/26 00:29:14;;;;;;;;;;;25.10;56.50;;;;;;4945750;28;86087;-51
2022/05/26 00:34:43;;;;;;;;;;;25.10;56.50;;;;;;4944796;28;86896;-51
2022/05/26 00:40:12;;;;;;;;;;;25.10;56.60;;;;;;4944746;28;87105;-51
2022/05/26 00:45:43;;;;;;;;;;;25.10;56.60;;;;;;4947710;28;86671;-53
2022/05/26 00:51:11;;;;;;;;;;;25.00;56.60;;;;;;4944809;28;86746;-53
2022/05/26 00:56:47;;;;;;;;;;;25.00;56.60;;;;;;4944978;28;86154;-55
2022/05/26 01:02:16;;;;;;;;;;;25.00;56.70;;;;;;4947278;28;86750;-51
2022/05/26 01:07:45;;;;;;;;;;;25.00;56.60;;;;;;4948231;28;86815;-51
2022/05/26 01:13:17;;;;;;;;;;;24.90;56.70;;;;;;4948146;28;86819;-54
2022/05/26 01:18:49;;;;;;;;;;;24.90;56.70;;;;;;4947680;28;86820;-50
2022/05/26 01:24:47;;;;;;;;;;;24.90;56.70;;;;;;4947550;28;87164;-52
2022/05/26 01:30:19;;;;;;;;;;;24.80;56.70;;;;;;4949836;28;86758;-50
2022/05/26 01:36:01;;;;;;;;;;;24.80;56.70;;;;;;4947645;28;86761;-54
2022/05/26 01:41:51;;;;;;;;;;;24.80;56.70;;;;;;4947182;28;86899;-54
2022/05/26 01:47:38;;;;;;;;;;;24.80;56.70;;;;;;4947601;28;86866;-50
2022/05/26 01:53:08;;;;;;;;;;;24.70;56.70;;;;;;4950843;28;86029;-55
2022/05/26 01:58:44;;;;;;;;;;;24.70;56.70;;;;;;4947319;28;86771;-53
2022/05/26 02:04:19;;;;;;;;;;;24.60;56.60;;;;;;4946799;28;86983;-52
2022/05/26 02:09:48;;;;;;;;;;;24.60;56.60;;;;;;4949888;28;86757;-51
2022/05/26 02:50:38;;;;;;;;;;;24.40;56.60;;;;;;4946690;28;86893;-50
2022/05/26 02:53:13;;;;;;;;;;;24.40;56.70;;;;;;4948826;28;87771;-50
2022/05/26 02:55:53;;;;;;;;;;;24.40;57.30;;;;;;4948900;28;86951;-50
2022/05/26 02:58:34;;;;;;;;;;;24.40;56.60;;;;;;4948591;28;87996;-51
2022/05/26 03:01:09;;;;;;;;;;;24.30;56.60;;;;;;4947536;28;89345;-50
2022/05/26 03:03:34;;;;;;;;;;;24.30;56.60;;;;;;4948797;28;86965;-50
2022/05/26 03:06:03;;;;;;;;;;;24.30;56.60;;;;;;4948521;28;88377;-51
2022/05/26 03:08:31;;;;;;;;;;;24.30;56.60;;;;;;4951119;28;87690;-50
2022/05/26 03:11:32;;;;;;;;;;;24.30;56.60;;;;;;4948202;28;88246;-50
2022/05/26 03:13:58;;;;;;;;;;;24.30;56.60;;;;;;4907240;28;88944;-50
2022/05/26 03:16:24;;;;;;;;;;;24.30;56.60;;;;;;4939659;28;86977;-50
2022/05/26 03:18:51;;;;;;;;;;;24.20;56.50;;;;;;4948979;28;87111;-50
2022/05/26 03:21:17;;;;;;;;;;;24.20;56.50;;;;;;4947944;28;88457;-50
2022/05/26 03:23:43;;;;;;;;;;;24.20;56.50;;;;;;4948254;28;87018;-50
2022/05/26 03:26:08;;;;;;;;;;;24.20;56.50;;;;;;4947680;28;87820;-50
2022/05/26 03:28:35;;;;;;;;;;;24.20;56.50;;;;;;4947459;28;87513;-50
2022/05/26 03:31:04;;;;;;;;;;;24.20;56.50;;;;;;4950856;28;87004;-50
2022/05/26 03:40:45;;;;;;;;;;;24.20;56.50;;;;;;4947866;28;87549;-50
2022/05/26 03:41:44;;;;;;;;;;;24.10;56.40;;;;;;4944741;28;87040;-49
2022/05/26 03:44:09;;;;;;;;;;;24.10;56.50;;;;;;4948473;28;86201;-49
2022/05/26 03:46:38;;;;;;;;;;;24.10;56.40;;;;;;4947937;28;87354;-50
2022/05/26 03:49:03;;;;;;;;;;;24.10;56.50;;;;;;4956845;28;88513;-50
2022/05/26 03:51:29;;;;;;;;;;;24.10;56.50;;;;;;4966831;28;87977;-50
2022/05/26 03:53:55;;;;;;;;;;;24.00;56.40;;;;;;4970163;28;87836;-50
2022/05/26 03:56:20;;;;;;;;;;;24.00;56.50;;;;;;4967590;28;86833;-50
2022/05/26 03:58:46;;;;;;;;;;;24.00;56.50;;;;;;4967393;28;86935;-50
2022/05/26 04:01:12;;;;;;;;;;;24.00;56.50;;;;;;4966850;28;88636;-49
2022/05/26 04:03:37;;;;;;;;;;;24.00;56.50;;;;;;4967094;28;86896;-50
2022/05/26 04:06:03;;;;;;;;;;;24.00;56.60;;;;;;4967433;28;86977;-50
2022/05/26 04:08:29;;;;;;;;;;;24.00;56.50;;;;;;4967412;28;87014;-51
2022/05/26 04:10:55;;;;;;;;;;;23.90;56.40;;;;;;4967014;28;87011;-50
2022/05/26 04:13:21;;;;;;;;;;;23.90;56.50;;;;;;4967462;28;86863;-50
2022/05/26 04:15:46;;;;;;;;;;;23.90;56.50;;;;;;4969025;28;88435;-50
2022/05/26 04:18:12;;;;;;;;;;;23.90;56.50;;;;;;4967272;28;88397;-50
2022/05/26 04:20:37;;;;;;;;;;;23.90;56.50;;;;;;4966928;28;87757;-50
2022/05/26 04:23:03;;;;;;;;;;;23.90;56.50;;;;;;4967057;28;86843;-50
2022/05/26 04:25:29;;;;;;;;;;;23.90;56.50;;;;;;4966976;28;87856;-50
2022/05/26 04:27:55;;;;;;;;;;;23.90;56.50;;;;;;4966435;28;87870;-50
2022/05/26 04:30:21;;;;;;;;;;;23.90;56.50;;;;;;4966883;28;87008;-49
2022/05/26 04:32:47;;;;;;;;;;;23.90;56.50;;;;;;4967325;28;86979;-50
2022/05/26 04:35:13;;;;;;;;;;;23.80;56.50;;;;;;4966364;28;89044;-50
2022/05/26 04:37:38;;;;;;;;;;;23.80;56.50;;;;;;4969910;28;86965;-50
2022/05/26 04:40:05;;;;;;;;;;;23.80;56.50;;;;;;4965688;28;89553;-50
2022/05/26 04:42:31;;;;;;;;;;;23.80;56.50;;;;;;4966633;28;86871;-51
2022/05/26 04:44:57;;;;;;;;;;;23.80;56.50;;;;;;4967050;28;87143;-50
2022/05/26 04:47:22;;;;;;;;;;;23.80;56.50;;;;;;4966243;28;88662;-50
2022/05/26 04:49:48;;;;;;;;;;;23.80;57.20;;;;;;4966737;28;87157;-50
2022/05/26 04:52:16;;;;;;;;;;;23.70;56.50;;;;;;4966896;28;86789;-50
2022/05/26 04:54:42;;;;;;;;;;;23.80;56.50;;;;;;4966136;28;89134;-51
2022/05/26 04:57:08;;;;;;;;;;;23.80;56.50;;;;;;4966995;28;86165;-50
2022/05/26 04:59:34;;;;;;;;;;;23.70;56.50;;;;;;4968962;28;87306;-50
2022/05/26 05:02:00;;;;;;;;;;;23.80;56.60;;;;;;4966819;28;86864;-49
2022/05/26 05:04:26;;;;;;;;;;;23.70;56.50;;;;;;4965949;28;88335;-50
2022/05/26 05:06:52;;;;;;;;;;;23.70;56.50;;;;;;4966071;28;88549;-50
2022/05/26 05:09:18;;;;;;;;;;;23.70;56.60;;;;;;4966459;28;86898;-50
2022/05/26 05:11:44;;;;;;;;;;;23.60;56.60;;;;;;4966510;28;87198;-50
2022/05/26 05:14:10;;;;;;;;;;;23.70;56.70;;;;;;4966014;28;88759;-50
2022/05/26 05:16:42;;;;;;;;;;;23.60;56.60;;;;;;4966315;28;86894;-50
2022/05/26 05:19:08;;;;;;;;;;;23.70;56.70;;;;;;4968869;28;88020;-50
2022/05/26 05:21:54;;;;;;;;;;;23.70;56.80;;;;;;4966727;28;86156;-50
2022/05/26 05:24:27;;;;;;;;;;;23.60;56.70;;;;;;4965716;28;87646;-50
2022/05/26 05:26:55;;;;;;;;;;;23.70;56.80;;;;;;4965843;28;88652;-50
2022/05/26 05:29:23;;;;;;;;;;;23.60;56.80;;;;;;4965767;28;88373;-50
2022/05/26 05:31:52;;;;;;;;;;;23.60;56.80;;;;;;4966093;28;88847;-50
2022/05/26 05:34:20;;;;;;;;;;;23.60;56.80;;;;;;4965119;28;86885;-51
2022/05/26 05:36:46;;;;;;;;;;;23.60;56.80;;;;;;4966294;28;86931;-51
2022/05/26 05:39:12;;;;;;;;;;;23.60;56.90;;;;;;4966410;28;86842;-51
2022/05/26 05:41:39;;;;;;;;;;;23.60;57.00;;;;;;4968538;28;87863;-50
2022/05/26 05:44:05;;;;;;;;;;;23.70;57.00;;;;;;4965872;28;88100;-50
2022/05/26 05:46:34;;;;;;;;;;;23.60;57.00;;;;;;4966088;28;87762;-50
2022/05/26 05:49:04;;;;;;;;;;;23.70;57.00;;;;;;4965638;28;87168;-49
2022/05/26 05:51:32;;;;;;;;;;;23.70;57.00;;;;;;4968477;28;87925;-50
2022/05/26 05:53:58;;;;;;;;;;;23.70;57.00;;;;;;4968181;28;89378;-50
2022/05/26 05:56:24;;;;;;;;;;;23.70;57.00;;;;;;4969160;28;86878;-50
2022/05/26 05:58:51;;;;;;;;;;;23.70;57.10;;;;;;4969472;28;86878;-50
2022/05/26 06:01:17;;;;;;;;;;;23.70;57.10;;;;;;4968862;28;88880;-50
2022/05/26 06:06:46;;;;;;;;;;;23.70;57.20;;;;;;4966543;28;86836;-50
2022/05/26 06:12:14;;;;;;;;;;;23.70;57.10;;;;;;4967071;28;85922;-50
2022/05/26 06:17:43;;;;;;;;;;;23.70;57.20;;;;;;4966692;28;86771;-50
2022/05/26 06:23:12;;;;;;;;;;;23.70;57.20;;;;;;4966043;28;86991;-50
2022/05/26 06:40:16;;;;;;;;;;;23.70;57.30;;;;;;4966506;28;86123;-50
2022/05/26 06:45:45;;;;;;;;;;;23.70;57.40;;;;;;4965455;28;86745;-50
2022/05/26 06:51:29;;;;;;;;;;;23.70;57.60;;;;;;4963313;28;87454;-50
2022/05/26 06:56:57;;;;;;;;;;;23.70;57.60;;;;;;4965824;28;86740;-50
2022/05/26 07:02:26;;;;;;;;;;;23.70;57.50;;;;;;4964385;28;86747;-50
2022/05/26 07:07:55;;;;;;;;;;;23.70;57.50;;;;;;4965593;28;86277;-51
2022/05/26 07:13:26;;;;;;;;;;;23.70;57.50;;;;;;4965133;28;86914;-53
2022/05/26 07:18:55;;;;;;;;;;;23.70;57.50;;;;;;4968023;28;86796;-50
2022/05/26 07:24:25;;;;;;;;;;;23.70;57.40;;;;;;4965064;28;86843;-50
2022/05/26 07:29:54;;;;;;;;;;;23.70;58.10;;;;;;4964408;28;87028;-50
2022/05/26 07:35:22;;;;;;;;;;;23.70;57.20;;;;;;4965403;28;86058;-50
2022/05/26 07:41:19;;;;;;;;;;;23.70;57.00;;;;;;4970833;28;86961;-50
2022/05/26 07:46:47;;;;;;;;;;;23.80;56.90;;;;;;4964732;28;86939;-50
2022/05/26 07:52:16;;;;;;;;;;;23.80;56.90;;;;;;4962208;28;87022;-50
2022/05/26 07:57:45;;;;;;;;;;;23.80;56.80;;;;;;4964439;28;86621;-50
2022/05/26 08:03:14;;;;;;;;;;;23.80;56.70;;;;;;4964991;28;86019;-49
2022/05/26 08:08:42;;;;;;;;;;;23.80;56.60;;;;;;4964406;28;86845;-53
2022/05/26 08:14:12;;;;;;;;;;;23.80;56.60;;;;;;4963665;28;86962;-50
2022/05/26 08:19:40;;;;;;;;;;;23.80;56.70;;;;;;4964309;28;86732;-51
2022/05/26 08:25:10;;;;;;;;;;;23.80;56.70;;;;;;4964713;28;86764;-50
2022/05/26 08:30:39;;;;;;;;;;;23.80;56.60;;;;;;4967088;28;86237;-50
2022/05/26 08:36:09;;;;;;;;;;;23.80;56.30;;;;;;4963586;28;86935;-51
2022/05/26 08:41:40;;;;;;;;;;;23.80;56.40;;;;;;4964202;28;87374;-50
2022/05/26 08:47:10;;;;;;;;;;;23.80;56.10;;;;;;4964051;28;86713;-50
2022/05/26 08:52:43;;;;;;;;;;;23.80;56.20;;;;;;4963246;28;86880;-51
2022/05/26 08:58:17;;;;;;;;;;;23.80;56.20;;;;;;4963834;28;86232;-50
2022/05/26 09:03:45;;;;;;;;;;;23.80;56.10;;;;;;4963681;28;86779;-50
2022/05/26 09:15:03;;;;;;;;;;;23.90;56.00;;;;;;4963350;28;87095;-51
2022/05/26 09:20:33;;;;;;;;;;;23.90;55.70;;;;;;4965891;28;86815;-51
2022/05/26 09:26:02;;;;;;;;;;;23.90;55.60;;;;;;4966157;28;86411;-51
2022/05/26 09:31:35;;;;;;;;;;;23.90;55.90;;;;;;4966911;28;86738;-50
2022/05/26 09:37:04;;;;;;;;;;;23.90;56.10;;;;;;4966370;28;86773;-50
2022/05/26 09:42:40;;;;;;;;;;;24.00;55.70;;;;;;4969773;28;86868;-50
2022/05/26 09:48:17;;;;;;;;;;;24.00;55.60;;;;;;4967208;28;86757;-50
2022/05/26 09:53:45;;;;;;;;;;;24.00;55.80;;;;;;4965328;28;86255;-50
2022/05/26 09:59:23;;;;;;;;;;;24.00;55.70;;;;;;4966432;28;87089;-51
2022/05/26 10:05:06;;;;;;;;;;;24.10;56.00;;;;;;4966717;28;86808;-50
2022/05/26 10:10:35;;;;;;;;;;;24.20;55.90;;;;;;4966808;28;86728;-50
2022/05/26 10:16:03;;;;;;;;;;;24.20;55.70;;;;;;4966733;28;86785;-50
2022/05/26 10:21:38;;;;;;;;;;;24.20;56.30;;;;;;4966837;28;86311;-50
2022/05/26 10:27:10;;;;;;;;;;;24.30;55.60;;;;;;4966616;28;86726;-50
2022/05/26 10:32:46;;;;;;;;;;;24.30;55.60;;;;;;4969399;28;86639;-50
2022/05/26 10:38:33;;;;;;;;;;;24.40;55.60;;;;;;4966505;28;86737;-50
2022/05/26 10:44:01;;;;;;;;;;;24.40;55.60;;;;;;4965995;28;86953;-50
2022/05/26 10:49:48;;;;;;;;;;;24.40;55.40;;;;;;4966820;28;86017;-50
2022/05/26 10:55:30;;;;;;;;;;;24.50;55.50;;;;;;4963331;28;87065;-50
2022/05/26 11:01:01;;;;;;;;;;;24.50;55.60;;;;;;4966112;28;86718;-50
2022/05/26 11:06:34;;;;;;;;;;;24.50;55.70;;;;;;4965558;28;87021;-50
2022/05/26 11:12:13;;;;;;;;;;;24.60;55.70;;;;;;4965867;28;86738;-50
2022/05/26 11:17:50;;;;;;;;;;;24.60;55.60;;;;;;4966345;28;86512;-50
2022/05/26 11:23:18;;;;;;;;;;;24.60;55.80;;;;;;4968262;28;86993;-50
2022/05/26 11:28:53;;;;;;;;;;;24.70;55.70;;;;;;4965273;28;87037;-50
2022/05/26 11:40:13;;;;;;;;;;;24.70;55.60;;;;;;4965508;28;86806;-50
2022/05/26 11:45:50;;;;;;;;;;;24.80;55.70;;;;;;4965570;28;86275;-50
2022/05/26 11:51:27;;;;;;;;;;;24.80;55.60;;;;;;4964943;28;87017;-50
2022/05/26 11:56:56;;;;;;;;;;;24.90;55.60;;;;;;4962688;28;87405;-50
2022/05/26 12:02:29;;;;;;;;;;;24.90;55.60;;;;;;4965175;28;86733;-50
2022/05/26 12:07:59;;;;;;;;;;;25.00;55.70;;;;;;4964726;28;86930;-50
2022/05/26 12:13:34;;;;;;;;;;;25.00;55.60;;;;;;4965127;28;86303;-50
2022/05/26 12:19:04;;;;;;;;;;;25.00;55.70;;;;;;4964860;28;86898;-50
2022/05/26 12:24:33;;;;;;;;;;;25.10;55.70;;;;;;4964872;28;86733;-51
2022/05/26 12:30:04;;;;;;;;;;;25.20;55.70;;;;;;4964387;28;87009;-50
2022/05/26 12:35:37;;;;;;;;;;;25.20;55.60;;;;;;4967159;28;86937;-50
2022/05/26 12:41:24;;;;;;;;;;;25.30;55.70;;;;;;4965038;28;86377;-51
2022/05/26 12:47:04;;;;;;;;;;;25.30;55.50;;;;;;4964580;28;86728;-50
2022/05/26 12:52:37;;;;;;;;;;;25.40;55.50;;;;;;4963899;28;86915;-50
2022/05/26 12:58:20;;;;;;;;;;;25.50;55.50;;;;;;4962189;28;86984;-50
2022/05/26 13:04:14;;;;;;;;;;;25.50;55.50;;;;;;4964321;28;86799;-50
2022/05/26 13:09:47;;;;;;;;;;;25.50;55.60;;;;;;4964801;28;86067;-51
2022/05/26 13:15:20;;;;;;;;;;;25.60;55.60;;;;;;4963855;28;87073;-51
2022/05/26 13:20:49;;;;;;;;;;;25.60;55.70;;;;;;4964234;28;86795;-50
2022/05/26 13:26:18;;;;;;;;;;;25.70;55.60;;;;;;4966973;28;86660;-51
2022/05/26 13:37:40;;;;;;;;;;;25.70;55.50;;;;;;4964037;28;86044;-51
2022/05/26 13:43:11;;;;;;;;;;;25.80;55.60;;;;;;4963918;28;86802;-50
2022/05/26 13:48:42;;;;;;;;;;;25.80;55.40;;;;;;4963731;28;86763;-50
2022/05/26 13:54:11;;;;;;;;;;;25.80;55.20;;;;;;4963705;28;86831;-50
2022/05/26 13:59:42;;;;;;;;;;;25.90;55.50;;;;;;4959921;28;87088;-50
2022/05/26 14:05:11;;;;;;;;;;;25.90;55.20;;;;;;4964004;28;86368;-50
2022/05/26 14:10:42;;;;;;;;;;;26.00;55.10;;;;;;4963790;28;86825;-50
2022/05/26 14:16:17;;;;;;;;;;;26.00;54.90;;;;;;4969285;28;86800;-52
2022/05/26 14:21:49;;;;;;;;;;;26.10;55.00;;;;;;4966230;28;86991;-50
2022/05/26 14:27:20;;;;;;;;;;;26.10;54.70;;;;;;4966615;28;86708;-51
2022/05/26 14:32:48;;;;;;;;;;;26.10;54.60;;;;;;4966983;28;86025;-50
2022/05/26 14:38:17;;;;;;;;;;;26.20;54.70;;;;;;4968561;28;86748;-50
2022/05/26 14:43:46;;;;;;;;;;;26.20;54.20;;;;;;4965495;28;87064;-50
2022/05/26 14:49:15;;;;;;;;;;;26.30;54.20;;;;;;4967919;28;86891;-50
2022/05/26 15:00:35;;;;;;;;;;;26.40;54.20;;;;;;4965141;28;86316;-51
2022/05/26 15:06:03;;;;;;;;;;;26.40;53.90;;;;;;4964830;28;86999;-51
2022/05/26 15:11:32;;;;;;;;;;;26.40;53.80;;;;;;4965121;28;87216;-51
2022/05/26 15:17:02;;;;;;;;;;;26.50;53.70;;;;;;4965080;28;86871;-51
2022/05/26 15:22:31;;;;;;;;;;;26.40;54.00;;;;;;4963716;28;87018;-52
2022/05/26 15:28:01;;;;;;;;;;;26.50;53.70;;;;;;4967817;28;86127;-51
2022/05/26 15:33:30;;;;;;;;;;;26.40;54.00;;;;;;4964970;28;86834;-50
2022/05/26 15:38:59;;;;;;;;;;;26.40;54.00;;;;;;4964807;28;86751;-52
2022/05/26 15:44:27;;;;;;;;;;;26.50;54.00;;;;;;4964123;28;87062;-50
2022/05/26 15:49:56;;;;;;;;;;;26.50;54.10;;;;;;4964958;28;86868;-50
2022/05/26 15:55:25;;;;;;;;;;;26.50;54.40;;;;;;4965037;28;86412;-50
2022/05/26 16:00:54;;;;;;;;;;;26.50;54.40;;;;;;4963308;28;86917;-51
2022/05/26 16:06:23;;;;;;;;;;;26.50;54.20;;;;;;4963869;28;86923;-51
2022/05/26 16:11:53;;;;;;;;;;;26.60;54.50;;;;;;4964397;28;86807;-52
2022/05/26 16:17:22;;;;;;;;;;;26.60;54.30;;;;;;4967287;28;86705;-51
2022/05/26 16:22:53;;;;;;;;;;;26.60;53.90;;;;;;4964521;28;85993;-53
2022/05/26 16:28:22;;;;;;;;;;;26.70;53.90;;;;;;4963555;28;87019;-52
2022/05/26 16:33:52;;;;;;;;;;;26.70;53.80;;;;;;4963596;28;87208;-50
2022/05/26 16:39:22;;;;;;;;;;;26.70;53.80;;;;;;4963980;28;86794;-51
2022/05/26 16:44:51;;;;;;;;;;;26.80;53.70;;;;;;4963762;28;86761;-51
2022/05/26 16:50:22;;;;;;;;;;;26.80;53.30;;;;;;4963815;28;86273;-52
2022/05/26 16:55:50;;;;;;;;;;;27.00;53.10;;;;;;4963653;28;86772;-50
2022/05/26 17:01:19;;;;;;;;;;;27.00;53.10;;;;;;4963176;28;87022;-50
2022/05/26 17:06:48;;;;;;;;;;;27.00;53.10;;;;;;4963479;28;86762;-52
2022/05/26 17:12:16;;;;;;;;;;;27.00;52.80;;;;;;4963028;28;86847;-51
2022/05/26 17:23:38;;;;;;;;;;;27.00;53.00;;;;;;4963402;28;86755;-50
2022/05/26 17:29:07;;;;;;;;;;;27.00;53.20;;;;;;4966282;28;87071;-51
2022/05/26 17:34:36;;;;;;;;;;;26.80;53.50;;;;;;4963165;28;86774;-52
2022/05/26 17:40:05;;;;;;;;;;;26.80;53.30;;;;;;4963513;28;86933;-50
2022/05/26 17:45:34;;;;;;;;;;;26.80;53.40;;;;;;4963844;28;86019;-50
2022/05/26 17:51:02;;;;;;;;;;;26.80;53.50;;;;;;4966440;28;86965;-50
2022/05/26 17:56:31;;;;;;;;;;;26.80;53.50;;;;;;4966440;28;86884;-51
2022/05/26 18:02:00;;;;;;;;;;;26.70;53.50;;;;;;4965671;28;87027;-50
2022/05/26 18:07:30;;;;;;;;;;;26.70;53.50;;;;;;4966655;28;86801;-50
2022/05/26 18:12:59;;;;;;;;;;;26.60;53.60;;;;;;4966526;28;86226;-50
2022/05/26 18:18:30;;;;;;;;;;;26.60;53.80;;;;;;4968896;28;86825;-50
2022/05/26 18:23:59;;;;;;;;;;;26.50;53.90;;;;;;4966455;28;86746;-51
2022/05/26 18:29:27;;;;;;;;;;;26.50;54.10;;;;;;4966503;28;86963;-50
2022/05/26 18:34:58;;;;;;;;;;;26.50;54.20;;;;;;4965825;28;87067;-50
2022/05/26 18:40:27;;;;;;;;;;;26.50;54.30;;;;;;4966638;28;86450;-50
2022/05/26 18:45:56;;;;;;;;;;;26.40;54.30;;;;;;4965984;28;86843;-50
2022/05/26 18:51:25;;;;;;;;;;;26.40;54.40;;;;;;4965995;28;86874;-50
2022/05/26 18:56:54;;;;;;;;;;;26.40;54.50;;;;;;4965416;28;87051;-50
2022/05/26 19:02:30;;;;;;;;;;;26.40;54.40;;;;;;4965524;28;86991;-50
2022/05/26 19:07:59;;;;;;;;;;;26.30;54.40;;;;;;4969216;28;86192;-51
2022/05/26 19:13:27;;;;;;;;;;;26.30;54.50;;;;;;4965526;28;86766;-50
2022/05/26 19:18:56;;;;;;;;;;;26.30;54.60;;;;;;4966741;28;87039;-50
2022/05/26 19:24:25;;;;;;;;;;;26.30;54.60;;;;;;4965382;28;86761;-50
2022/05/26 19:29:56;;;;;;;;;;;26.30;54.60;;;;;;4968249;28;86815;-50
2022/05/26 19:35:25;;;;;;;;;;;26.30;54.70;;;;;;4965791;28;86051;-50
2022/05/26 19:40:54;;;;;;;;;;;26.20;54.70;;;;;;4964126;28;86803;-52
2022/05/26 19:46:26;;;;;;;;;;;26.20;54.80;;;;;;4964752;28;86829;-53
2022/05/26 19:51:55;;;;;;;;;;;26.20;54.80;;;;;;4964812;28;86725;-50
2022/05/26 19:57:24;;;;;;;;;;;26.20;54.90;;;;;;4964789;28;86719;-50
2022/05/26 20:02:54;;;;;;;;;;;26.20;54.90;;;;;;4964352;28;86235;-50
2022/05/26 20:08:23;;;;;;;;;;;26.10;54.90;;;;;;4964115;28;86820;-50
2022/05/26 20:13:52;;;;;;;;;;;26.10;54.90;;;;;;4963821;28;86851;-52
2022/05/26 20:19:21;;;;;;;;;;;26.10;54.90;;;;;;4966423;28;86983;-50
2022/05/26 20:24:49;;;;;;;;;;;26.00;55.00;;;;;;4963361;28;87019;-51
2022/05/26 20:30:18;;;;;;;;;;;26.00;55.00;;;;;;4964510;28;86400;-50
2022/05/26 20:35:47;;;;;;;;;;;26.00;55.10;;;;;;4963703;28;86860;-51
2022/05/26 20:38:14;;;;;;;;;;;26.00;55.10;;;;;;4965906;28;88114;-51
2022/05/26 20:43:43;;;;;;;;;;;25.90;55.00;;;;;;4966584;28;86754;-52
2022/05/26 20:49:21;;;;;;;;;;;25.90;55.10;;;;;;4964196;28;86761;-51
2022/05/26 20:54:49;;;;;;;;;;;25.90;55.00;;;;;;4963767;28;87088;-50
2022/05/26 21:00:18;;;;;;;;;;;25.90;55.10;;;;;;4964539;28;86721;-51
2022/05/26 21:05:53;;;;;;;;;;;25.80;55.00;;;;;;4959874;28;87933;-50
2022/05/26 21:11:21;;;;;;;;;;;25.80;55.00;;;;;;4964192;28;86728;-50
2022/05/26 21:16:51;;;;;;;;;;;25.80;55.00;;;;;;4963760;28;87101;-51
2022/05/26 21:22:20;;;;;;;;;;;25.70;54.90;;;;;;4966716;28;86758;-51
2022/05/26 21:27:49;;;;;;;;;;;25.70;54.90;;;;;;4967603;28;86766;-51
2022/05/26 21:33:20;;;;;;;;;;;25.70;55.00;;;;;;4967478;28;87811;-50
2022/05/26 21:38:49;;;;;;;;;;;25.70;55.00;;;;;;4966900;28;86995;-51
2022/05/26 21:44:18;;;;;;;;;;;25.70;55.00;;;;;;4967195;28;86791;-51
2022/05/26 21:49:46;;;;;;;;;;;25.60;54.90;;;;;;4966993;28;86779;-51
2022/05/26 21:55:18;;;;;;;;;;;25.60;55.00;;;;;;4969416;28;86770;-50
2022/05/26 22:00:58;;;;;;;;;;;25.50;54.90;;;;;;4965869;28;87992;-50
2022/05/26 22:12:14;;;;;;;;;;;25.50;54.90;;;;;;4965716;28;86784;-51
2022/05/26 22:17:45;;;;;;;;;;;25.50;54.90;;;;;;4965101;28;86915;-50
2022/05/26 22:23:13;;;;;;;;;;;25.40;54.90;;;;;;4964982;28;87008;-50
2022/05/26 22:28:41;;;;;;;;;;;25.40;54.90;;;;;;4965004;28;87720;-50
2022/05/26 22:34:15;;;;;;;;;;;25.40;54.90;;;;;;4965506;28;86756;-51
2022/05/26 22:39:44;;;;;;;;;;;25.30;54.90;;;;;;4965070;28;86761;-50
2022/05/26 22:45:15;;;;;;;;;;;25.30;54.90;;;;;;4967833;28;86882;-50
2022/05/26 22:50:45;;;;;;;;;;;25.30;54.90;;;;;;4965096;28;86727;-50
2022/05/26 22:56:13;;;;;;;;;;;25.20;54.80;;;;;;4964229;28;87762;-50
2022/05/26 23:01:43;;;;;;;;;;;25.20;54.80;;;;;;4964378;28;86764;-51
2022/05/26 23:07:11;;;;;;;;;;;25.20;54.80;;;;;;4920413;28;1247922;-50
2022/05/26 23:12:50;;;;;;;;;;;25.10;54.80;;;;;;4965856;28;86848;-50
2022/05/26 23:18:19;;;;;;;;;;;25.10;54.80;;;;;;4965690;28;86754;-50
2022/05/26 23:23:47;;;;;;;;;;;25.10;54.80;;;;;;4964861;28;88005;-51
2022/05/26 23:29:16;;;;;;;;;;;25.00;54.80;;;;;;4965781;28;86624;-52
2022/05/26 23:34:45;;;;;;;;;;;25.00;54.90;;;;;;4968577;28;86770;-50
2022/05/26 23:40:13;;;;;;;;;;;25.00;54.80;;;;;;4967589;28;86804;-50
2022/05/26 23:45:42;;;;;;;;;;;24.90;54.90;;;;;;4965904;28;87038;-50
2022/05/26 23:51:10;;;;;;;;;;;24.90;54.90;;;;;;4964745;28;87788;-51
